Time;durP1;ratioP1;P1;durP2;ratioP2;P2;SDS_P1;SDS_P2;PMS_P1;PMS_P2;Temp;Humidity;BMP_temperature;BMP_pressure;BME280_temperature;BME280_humidity;BME280_pressure;Samples;Min_cycle;Max_cycle;Signal;HPM_P1;HPM_P2
2023/04/13 00:03:11;;;;;;;;;;;5.20;99.90;;;;;;8237891;28;19910;-85
2023/04/13 00:07:15;;;;;;;;;;;5.50;99.90;;;;;;8233991;28;19906;-84
2023/04/13 00:11:16;;;;;;;;;;;5.30;99.90;;;;;;8228031;28;19910;-84
2023/04/13 00:15:20;;;;;;;;;;;5.40;99.90;;;;;;8227485;28;19910;-84
2023/04/13 00:19:21;;;;;;;;;;;5.50;99.90;;;;;;8232382;28;19906;-84
2023/04/13 00:23:21;;;;;;;;;;;5.40;99.90;;;;;;8223448;28;19921;-84
2023/04/13 00:27:25;;;;;;;;;;;5.60;99.90;;;;;;8229197;28;19925;-84
2023/04/13 00:31:26;;;;;;;;;;;5.70;99.90;;;;;;8256061;28;19910;-84
2023/04/13 00:35:26;;;;;;;;;;;5.70;99.90;;;;;;8247485;28;19914;-84
2023/04/13 00:39:30;;;;;;;;;;;5.60;99.90;;;;;;8253769;28;19987;-83
2023/04/13 00:43:30;;;;;;;;;;;5.40;99.90;;;;;;8234200;28;19960;-84
2023/04/13 00:47:32;;;;;;;;;;;5.40;99.90;;;;;;8250662;28;19906;-83
2023/04/13 00:51:33;;;;;;;;;;;5.50;99.90;;;;;;8230152;28;19914;-84
2023/04/13 00:55:39;;;;;;;;;;;5.50;99.90;;;;;;8223000;28;20327;-84
2023/04/13 00:59:39;;;;;;;;;;;5.50;99.90;;;;;;8236632;28;20508;-84
2023/04/13 01:03:40;;;;;;;;;;;5.60;99.90;;;;;;8247840;28;19917;-83
2023/04/13 01:07:51;;;;;;;;;;;5.70;99.90;;;;;;8229637;28;19910;-82
2023/04/13 01:11:58;;;;;;;;;;;5.60;99.90;;;;;;8239386;28;20391;-84
2023/04/13 01:16:02;;;;;;;;;;;5.40;99.90;;;;;;8229407;28;19906;-83
2023/04/13 01:20:12;;;;;;;;;;;5.40;99.90;;;;;;8249205;28;20006;-84
2023/04/13 01:24:22;;;;;;;;;;;5.30;99.90;;;;;;8228074;28;20000;-83
2023/04/13 01:28:23;;;;;;;;;;;5.30;99.90;;;;;;8225883;28;19913;-84
2023/04/13 01:32:24;;;;;;;;;;;5.30;99.90;;;;;;8231842;28;19910;-83
2023/04/13 01:36:25;;;;;;;;;;;5.30;99.90;;;;;;8231915;28;19921;-84
2023/04/13 01:40:27;;;;;;;;;;;5.30;99.90;;;;;;8253579;28;19912;-84
2023/04/13 01:44:31;;;;;;;;;;;5.20;99.90;;;;;;8245138;28;19906;-83
2023/04/13 01:48:52;;;;;;;;;;;5.40;99.90;;;;;;8240510;28;19906;-83
2023/04/13 01:52:54;;;;;;;;;;;5.50;99.90;;;;;;8219109;28;19917;-83
2023/04/13 01:56:55;;;;;;;;;;;5.60;99.90;;;;;;8255289;28;20429;-83
2023/04/13 02:00:56;;;;;;;;;;;5.60;99.90;;;;;;8224294;28;19956;-83
2023/04/13 02:04:58;;;;;;;;;;;5.70;99.90;;;;;;8229467;28;20341;-83
2023/04/13 02:08:59;;;;;;;;;;;5.80;99.90;;;;;;8235698;28;20005;-84
2023/04/13 02:13:00;;;;;;;;;;;5.60;99.90;;;;;;8221947;28;19932;-83
2023/04/13 02:17:00;;;;;;;;;;;5.70;99.90;;;;;;8248466;28;20298;-82
2023/04/13 02:21:07;;;;;;;;;;;5.80;99.90;;;;;;8229721;28;19906;-83
2023/04/13 02:25:07;;;;;;;;;;;5.80;99.90;;;;;;8238228;28;19913;-83
2023/04/13 02:29:08;;;;;;;;;;;5.70;99.90;;;;;;8237807;28;20333;-83
2023/04/13 02:33:09;;;;;;;;;;;5.70;99.90;;;;;;8234366;28;19973;-82
2023/04/13 02:37:10;;;;;;;;;;;5.50;99.90;;;;;;8235066;28;19946;-82
2023/04/13 02:41:11;;;;;;;;;;;5.50;99.90;;;;;;8247194;28;19913;-81
2023/04/13 02:45:13;;;;;;;;;;;5.50;99.90;;;;;;8230019;28;19906;-81
2023/04/13 02:49:13;;;;;;;;;;;5.50;99.90;;;;;;8232987;28;20000;-80
2023/04/13 02:53:15;;;;;;;;;;;5.40;99.90;;;;;;8243048;28;19910;-81
2023/04/13 02:57:17;;;;;;;;;;;5.40;99.90;;;;;;8236956;28;20413;-82
2023/04/13 03:01:17;;;;;;;;;;;5.40;99.90;;;;;;8235197;28;19929;-80
2023/04/13 03:05:18;;;;;;;;;;;5.40;99.90;;;;;;8220117;28;19906;-80
2023/04/13 03:09:19;;;;;;;;;;;5.30;99.90;;;;;;8227658;28;19933;-80
2023/04/13 03:13:20;;;;;;;;;;;5.30;99.90;;;;;;8230738;28;20446;-80
2023/04/13 03:17:20;;;;;;;;;;;5.30;99.90;;;;;;8224783;28;19953;-80
2023/04/13 03:21:21;;;;;;;;;;;5.40;99.90;;;;;;8243338;28;19984;-80
2023/04/13 03:25:21;;;;;;;;;;;5.30;99.90;;;;;;8261261;28;20379;-80
2023/04/13 03:29:25;;;;;;;;;;;5.30;99.90;;;;;;8251765;28;19913;-80
2023/04/13 03:33:25;;;;;;;;;;;5.30;99.90;;;;;;8251874;28;19981;-79
2023/04/13 03:37:28;;;;;;;;;;;5.30;99.90;;;;;;8235137;28;19925;-79
2023/04/13 03:41:29;;;;;;;;;;;5.20;99.90;;;;;;8233657;28;19909;-80
2023/04/13 03:45:30;;;;;;;;;;;5.20;99.90;;;;;;8225269;28;19917;-79
2023/04/13 03:49:30;;;;;;;;;;;5.30;99.90;;;;;;8246992;28;19918;-80
2023/04/13 03:53:31;;;;;;;;;;;5.20;99.90;;;;;;8236384;28;19910;-79
2023/04/13 03:57:32;;;;;;;;;;;5.20;99.90;;;;;;8235841;28;20402;-79
2023/04/13 04:01:32;;;;;;;;;;;5.30;99.90;;;;;;8232756;28;20000;-79
2023/04/13 04:05:33;;;;;;;;;;;5.20;99.90;;;;;;8239703;28;20389;-78
2023/04/13 04:09:33;;;;;;;;;;;5.30;99.90;;;;;;8231471;28;20374;-77
2023/04/13 04:13:34;;;;;;;;;;;5.30;99.90;;;;;;8246284;28;20438;-78
2023/04/13 04:17:34;;;;;;;;;;;5.30;99.90;;;;;;8238278;28;20033;-79
2023/04/13 04:21:35;;;;;;;;;;;5.10;99.90;;;;;;8234052;28;19917;-78
2023/04/13 04:25:37;;;;;;;;;;;5.10;99.90;;;;;;8244653;28;19960;-78
2023/04/13 04:29:37;;;;;;;;;;;5.10;99.90;;;;;;8224982;28;20326;-77
2023/04/13 04:33:37;;;;;;;;;;;5.00;99.90;;;;;;8229396;28;19968;-78
2023/04/13 04:37:38;;;;;;;;;;;5.00;99.90;;;;;;8221416;28;19921;-78
2023/04/13 04:41:38;;;;;;;;;;;5.10;99.90;;;;;;8230789;28;19981;-78
2023/04/13 04:45:42;;;;;;;;;;;5.00;99.90;;;;;;8236235;28;19916;-79
2023/04/13 04:49:43;;;;;;;;;;;5.20;99.90;;;;;;8243962;28;19961;-78
2023/04/13 04:53:43;;;;;;;;;;;4.90;99.90;;;;;;8226540;28;19948;-78
2023/04/13 04:57:45;;;;;;;;;;;4.80;99.90;;;;;;8226167;28;19937;-77
2023/04/13 05:01:45;;;;;;;;;;;4.90;99.90;;;;;;8225924;28;19996;-79
2023/04/13 05:05:46;;;;;;;;;;;4.90;99.90;;;;;;8229592;28;19942;-79
2023/04/13 05:09:47;;;;;;;;;;;4.70;99.90;;;;;;8246644;28;19914;-78
2023/04/13 05:13:47;;;;;;;;;;;4.70;99.90;;;;;;8230750;28;19914;-79
2023/04/13 05:17:49;;;;;;;;;;;4.90;99.90;;;;;;8234705;28;19913;-79
2023/04/13 05:21:50;;;;;;;;;;;5.10;99.90;;;;;;8249417;28;19914;-79
2023/04/13 05:25:51;;;;;;;;;;;5.20;99.90;;;;;;8248176;28;19906;-79
2023/04/13 05:29:52;;;;;;;;;;;5.30;99.90;;;;;;8227304;28;19910;-78
2023/04/13 05:33:52;;;;;;;;;;;5.40;99.90;;;;;;8227992;28;19925;-79
2023/04/13 05:37:52;;;;;;;;;;;5.50;99.90;;;;;;8239567;28;19964;-78
2023/04/13 05:41:53;;;;;;;;;;;5.50;99.90;;;;;;8222992;28;19906;-78
2023/04/13 05:45:53;;;;;;;;;;;5.70;99.90;;;;;;8227332;28;20561;-78
2023/04/13 05:49:54;;;;;;;;;;;5.80;99.90;;;;;;8217593;28;20000;-78
2023/04/13 05:53:54;;;;;;;;;;;5.70;99.90;;;;;;8228557;28;19961;-79
2023/04/13 05:57:55;;;;;;;;;;;5.90;99.90;;;;;;8231764;28;19921;-79
2023/04/13 06:01:56;;;;;;;;;;;6.00;99.90;;;;;;8238213;28;19914;-79
2023/04/13 06:05:56;;;;;;;;;;;6.10;99.90;;;;;;8232077;28;20370;-79
2023/04/13 06:09:57;;;;;;;;;;;6.10;99.90;;;;;;8224662;28;20499;-78
2023/04/13 06:13:57;;;;;;;;;;;6.30;99.90;;;;;;8226389;28;19984;-79
2023/04/13 06:17:57;;;;;;;;;;;6.40;99.90;;;;;;8228273;28;20471;-82
2023/04/13 06:21:58;;;;;;;;;;;6.30;99.90;;;;;;8231922;28;19976;-84
2023/04/13 06:25:59;;;;;;;;;;;6.30;99.90;;;;;;8234717;28;19953;-84
2023/04/13 06:30:00;;;;;;;;;;;6.40;99.90;;;;;;8245777;28;20274;-84
2023/04/13 06:34:01;;;;;;;;;;;6.60;99.90;;;;;;8246234;28;20000;-84
2023/04/13 06:38:01;;;;;;;;;;;6.70;99.90;;;;;;8228009;28;19913;-84
2023/04/13 06:42:02;;;;;;;;;;;7.00;99.90;;;;;;8224328;28;20362;-83
2023/04/13 06:46:03;;;;;;;;;;;7.10;99.90;;;;;;8250014;28;19912;-83
2023/04/13 06:50:05;;;;;;;;;;;7.30;99.90;;;;;;8235884;28;19906;-83
2023/04/13 06:54:05;;;;;;;;;;;7.30;99.90;;;;;;8229446;28;19913;-79
2023/04/13 06:58:06;;;;;;;;;;;7.20;99.90;;;;;;8222175;28;20411;-79
2023/04/13 07:02:08;;;;;;;;;;;7.40;99.90;;;;;;8239771;28;19925;-79
2023/04/13 07:06:09;;;;;;;;;;;7.70;99.90;;;;;;8228614;28;19969;-79
2023/04/13 07:10:09;;;;;;;;;;;7.90;99.90;;;;;;8215645;28;20342;-80
2023/04/13 07:14:10;;;;;;;;;;;8.00;99.90;;;;;;8221275;28;19921;-79
2023/04/13 07:18:10;;;;;;;;;;;8.00;99.90;;;;;;8226488;28;19906;-79
2023/04/13 07:22:11;;;;;;;;;;;7.90;99.90;;;;;;8219665;28;20007;-79
2023/04/13 07:26:14;;;;;;;;;;;7.90;99.90;;;;;;8222692;28;19917;-80
2023/04/13 07:30:15;;;;;;;;;;;8.00;99.90;;;;;;8214901;28;19956;-79
2023/04/13 07:34:16;;;;;;;;;;;7.80;99.90;;;;;;8243529;28;20293;-79
2023/04/13 07:38:16;;;;;;;;;;;7.90;99.90;;;;;;8223597;28;19912;-79
2023/04/13 07:42:16;;;;;;;;;;;8.10;99.90;;;;;;8225234;28;20350;-79
2023/04/13 07:46:19;;;;;;;;;;;8.10;99.90;;;;;;8222450;28;19906;-78
2023/04/13 07:50:19;;;;;;;;;;;8.00;99.90;;;;;;8215996;28;19936;-79
2023/04/13 07:54:21;;;;;;;;;;;8.10;99.90;;;;;;8237700;28;19914;-79
2023/04/13 07:58:21;;;;;;;;;;;8.20;99.90;;;;;;8223005;28;19913;-79
2023/04/13 08:02:22;;;;;;;;;;;8.30;99.90;;;;;;8226172;28;19905;-78
2023/04/13 08:06:22;;;;;;;;;;;8.10;99.90;;;;;;8246494;28;19914;-79
2023/04/13 08:10:22;;;;;;;;;;;8.00;99.90;;;;;;8226644;28;19932;-79
2023/04/13 08:14:23;;;;;;;;;;;8.10;99.90;;;;;;8238132;28;19921;-79
2023/04/13 08:18:25;;;;;;;;;;;8.20;99.90;;;;;;8227764;28;19936;-78
2023/04/13 08:22:26;;;;;;;;;;;8.10;99.90;;;;;;8242860;28;19933;-78
2023/04/13 08:26:26;;;;;;;;;;;8.30;99.90;;;;;;8226358;28;19920;-79
2023/04/13 08:30:27;;;;;;;;;;;8.60;99.90;;;;;;8225013;28;19918;-79
2023/04/13 08:34:27;;;;;;;;;;;8.40;99.90;;;;;;8240253;28;20543;-79
2023/04/13 08:38:28;;;;;;;;;;;8.60;99.90;;;;;;8236757;28;19910;-78
2023/04/13 08:42:29;;;;;;;;;;;8.60;99.90;;;;;;8241328;28;19916;-78
2023/04/13 08:46:30;;;;;;;;;;;8.70;99.90;;;;;;8226242;28;19974;-79
2023/04/13 08:50:30;;;;;;;;;;;9.10;99.90;;;;;;8221044;28;19910;-79
2023/04/13 08:54:31;;;;;;;;;;;9.70;99.90;;;;;;8240725;28;19985;-79
2023/04/13 08:58:33;;;;;;;;;;;9.60;99.90;;;;;;8222523;28;20390;-79
2023/04/13 09:02:35;;;;;;;;;;;9.40;99.90;;;;;;8252611;28;19916;-79
2023/04/13 09:06:39;;;;;;;;;;;9.80;99.90;;;;;;8242232;28;19913;-79
2023/04/13 09:10:41;;;;;;;;;;;10.20;99.90;;;;;;8240158;28;19910;-79
2023/04/13 09:14:42;;;;;;;;;;;10.40;99.90;;;;;;8221492;28;19910;-79
2023/04/13 09:18:49;;;;;;;;;;;10.50;99.90;;;;;;8215292;28;20345;-78
2023/04/13 09:22:50;;;;;;;;;;;10.60;99.90;;;;;;8224401;28;19914;-81
2023/04/13 09:26:51;;;;;;;;;;;11.00;99.90;;;;;;8237326;28;19949;-79
2023/04/13 09:31:00;;;;;;;;;;;11.40;99.90;;;;;;8216993;28;19907;-80
2023/04/13 09:35:03;;;;;;;;;;;11.40;99.90;;;;;;8238777;28;19920;-79
2023/04/13 09:39:04;;;;;;;;;;;11.70;99.90;;;;;;8227280;28;19918;-80
2023/04/13 09:43:06;;;;;;;;;;;12.10;99.90;;;;;;8238290;28;19910;-81
2023/04/13 09:47:07;;;;;;;;;;;12.80;99.90;;;;;;8220447;28;19960;-79
2023/04/13 09:51:08;;;;;;;;;;;13.90;99.90;;;;;;8222408;28;20305;-79
2023/04/13 09:55:14;;;;;;;;;;;13.80;99.90;;;;;;8223848;28;20139;-79
2023/04/13 09:59:14;;;;;;;;;;;13.00;99.90;;;;;;8223339;28;19910;-79
2023/04/13 10:03:15;;;;;;;;;;;11.60;99.90;;;;;;8224572;28;20001;-79
2023/04/13 10:07:16;;;;;;;;;;;11.70;99.90;;;;;;8223838;28;19929;-79
2023/04/13 10:11:17;;;;;;;;;;;11.40;99.90;;;;;;8238113;28;19916;-79
2023/04/13 10:15:38;;;;;;;;;;;11.00;99.90;;;;;;8227214;28;19956;-79
2023/04/13 10:19:42;;;;;;;;;;;10.40;99.90;;;;;;8225777;28;19912;-80
2023/04/13 10:23:43;;;;;;;;;;;10.10;99.90;;;;;;8222793;28;19917;-78
2023/04/13 10:27:54;;;;;;;;;;;9.80;99.90;;;;;;8223813;28;19982;-79
2023/04/13 10:31:56;;;;;;;;;;;9.50;99.90;;;;;;8221588;28;19921;-79
2023/04/13 10:35:57;;;;;;;;;;;9.70;99.90;;;;;;8222443;28;19917;-79
2023/04/13 10:40:04;;;;;;;;;;;10.00;99.90;;;;;;8238651;28;19917;-80
2023/04/13 10:44:06;;;;;;;;;;;9.90;99.90;;;;;;8221755;28;19957;-79
2023/04/13 10:48:06;;;;;;;;;;;9.80;99.90;;;;;;8224958;28;19956;-78
2023/04/13 10:52:10;;;;;;;;;;;9.90;99.90;;;;;;8219880;28;19913;-78
2023/04/13 10:56:18;;;;;;;;;;;10.40;99.90;;;;;;8214684;28;19962;-79
2023/04/13 11:00:20;;;;;;;;;;;10.80;99.90;;;;;;8243340;28;19936;-79
2023/04/13 11:04:21;;;;;;;;;;;11.20;99.90;;;;;;8228340;28;19910;-79
2023/04/13 11:08:21;;;;;;;;;;;11.80;99.90;;;;;;8233415;28;19917;-79
2023/04/13 11:12:22;;;;;;;;;;;11.80;99.90;;;;;;8244722;28;19914;-79
2023/04/13 11:16:22;;;;;;;;;;;11.90;99.90;;;;;;8221228;28;19910;-79
2023/04/13 11:20:33;;;;;;;;;;;12.20;99.90;;;;;;8220689;28;20473;-79
2023/04/13 11:24:34;;;;;;;;;;;12.50;99.90;;;;;;8210511;28;19918;-79
2023/04/13 11:28:45;;;;;;;;;;;12.90;99.90;;;;;;8246139;28;19920;-79
2023/04/13 11:32:47;;;;;;;;;;;12.80;99.90;;;;;;8221380;28;19925;-79
2023/04/13 11:36:49;;;;;;;;;;;12.60;99.90;;;;;;8222384;28;20382;-78
2023/04/13 11:40:50;;;;;;;;;;;12.80;99.90;;;;;;8223322;28;20529;-79
2023/04/13 11:44:52;;;;;;;;;;;12.50;99.90;;;;;;8225140;28;19952;-80
2023/04/13 11:48:53;;;;;;;;;;;12.80;99.90;;;;;;8222819;28;19956;-79
2023/04/13 11:52:55;;;;;;;;;;;12.90;99.90;;;;;;8226525;28;20401;-79
2023/04/13 11:56:56;;;;;;;;;;;12.90;99.90;;;;;;8229939;28;20283;-80
2023/04/13 12:00:57;;;;;;;;;;;12.30;99.90;;;;;;8226424;28;19957;-79
2023/04/13 12:04:58;;;;;;;;;;;12.30;99.90;;;;;;8252700;28;19914;-79
2023/04/13 12:08:59;;;;;;;;;;;12.60;99.90;;;;;;8232129;28;19910;-81
2023/04/13 12:13:05;;;;;;;;;;;12.80;99.90;;;;;;8222830;28;20333;-79
2023/04/13 12:17:09;;;;;;;;;;;13.00;99.90;;;;;;8223310;28;19906;-79
2023/04/13 12:21:16;;;;;;;;;;;13.10;99.90;;;;;;8237327;28;19976;-78
2023/04/13 12:25:18;;;;;;;;;;;13.70;99.90;;;;;;8224215;28;19996;-80
2023/04/13 12:29:20;;;;;;;;;;;13.90;99.90;;;;;;8240981;28;19906;-80
2023/04/13 12:33:21;;;;;;;;;;;13.90;99.90;;;;;;8246315;28;19920;-79
2023/04/13 12:37:21;;;;;;;;;;;13.90;99.90;;;;;;8250303;28;19913;-80
2023/04/13 12:41:22;;;;;;;;;;;14.20;99.90;;;;;;8243278;28;19988;-81
2023/04/13 12:45:22;;;;;;;;;;;14.30;99.90;;;;;;8233534;28;19910;-79
2023/04/13 12:49:23;;;;;;;;;;;14.30;99.90;;;;;;8239210;28;20235;-79
2023/04/13 12:53:23;;;;;;;;;;;14.60;99.90;;;;;;8237251;28;19913;-79
2023/04/13 12:57:24;;;;;;;;;;;14.70;99.20;;;;;;8223412;28;19957;-79
2023/04/13 13:01:25;;;;;;;;;;;14.50;99.90;;;;;;8226356;28;19921;-78
2023/04/13 13:05:25;;;;;;;;;;;14.50;99.60;;;;;;8233174;28;19913;-79
2023/04/13 13:09:26;;;;;;;;;;;14.10;99.70;;;;;;8235788;28;20357;-79
2023/04/13 13:13:26;;;;;;;;;;;13.40;99.40;;;;;;8250801;28;20411;-79
2023/04/13 13:17:27;;;;;;;;;;;12.80;99.90;;;;;;8249762;28;20347;-79
2023/04/13 13:21:27;;;;;;;;;;;12.60;99.90;;;;;;8225922;28;19921;-78
2023/04/13 13:25:28;;;;;;;;;;;12.40;99.90;;;;;;8246120;28;19910;-80
2023/04/13 13:29:32;;;;;;;;;;;11.90;99.90;;;;;;8252682;28;19921;-79
2023/04/13 13:33:32;;;;;;;;;;;11.80;99.90;;;;;;8227226;28;19998;-79
2023/04/13 13:37:33;;;;;;;;;;;11.70;99.90;;;;;;8228127;28;20374;-80
2023/04/13 13:41:33;;;;;;;;;;;11.80;99.90;;;;;;8230026;28;19948;-79
2023/04/13 13:45:33;;;;;;;;;;;11.80;99.90;;;;;;8229749;28;20004;-80
2023/04/13 13:49:34;;;;;;;;;;;11.50;99.90;;;;;;8236018;28;19906;-80
2023/04/13 13:53:35;;;;;;;;;;;11.20;99.90;;;;;;8242910;28;19918;-78
2023/04/13 13:57:35;;;;;;;;;;;10.80;99.90;;;;;;8213443;28;19937;-79
2023/04/13 14:01:36;;;;;;;;;;;10.30;99.90;;;;;;8229767;28;20210;-79
2023/04/13 14:05:37;;;;;;;;;;;9.90;99.90;;;;;;8224682;28;19913;-79
2023/04/13 14:09:37;;;;;;;;;;;9.50;99.90;;;;;;8226209;28;19956;-80
2023/04/13 14:13:37;;;;;;;;;;;9.30;99.90;;;;;;8226225;28;20271;-78
2023/04/13 14:17:38;;;;;;;;;;;9.30;99.90;;;;;;8226818;28;19913;-79
2023/04/13 14:21:41;;;;;;;;;;;9.50;99.90;;;;;;8219808;28;20386;-79
2023/04/13 14:25:41;;;;;;;;;;;9.80;99.90;;;;;;8255399;28;19910;-79
2023/04/13 14:29:42;;;;;;;;;;;10.20;99.90;;;;;;8244213;28;20338;-78
2023/04/13 14:33:42;;;;;;;;;;;10.60;99.90;;;;;;8227444;28;19933;-79
2023/04/13 14:37:43;;;;;;;;;;;10.80;99.90;;;;;;8247659;28;20322;-78
2023/04/13 14:41:43;;;;;;;;;;;11.10;99.90;;;;;;8229821;28;19905;-80
2023/04/13 14:45:44;;;;;;;;;;;11.40;99.90;;;;;;8243423;28;19999;-79
2023/04/13 14:49:45;;;;;;;;;;;11.80;99.90;;;;;;8226391;28;20365;-79
2023/04/13 14:53:45;;;;;;;;;;;11.90;99.90;;;;;;8220878;28;20413;-80
2023/04/13 14:57:46;;;;;;;;;;;11.90;99.90;;;;;;8226464;28;20402;-80
2023/04/13 15:01:47;;;;;;;;;;;11.80;99.90;;;;;;8240507;28;19906;-78
2023/04/13 15:05:49;;;;;;;;;;;11.80;99.90;;;;;;8221816;28;20385;-78
2023/04/13 15:09:49;;;;;;;;;;;11.50;99.90;;;;;;8220579;28;19925;-79
2023/04/13 15:13:49;;;;;;;;;;;11.70;99.90;;;;;;8223296;28;19911;-78
2023/04/13 15:17:50;;;;;;;;;;;11.10;99.90;;;;;;8229090;28;19910;-79
2023/04/13 15:21:51;;;;;;;;;;;10.90;99.90;;;;;;8220819;28;19917;-79
2023/04/13 15:25:51;;;;;;;;;;;10.60;99.90;;;;;;8245132;28;19910;-79
2023/04/13 15:29:56;;;;;;;;;;;10.90;99.90;;;;;;8225318;28;19964;-78
2023/04/13 15:33:56;;;;;;;;;;;10.90;99.90;;;;;;8252603;28;20094;-78
2023/04/13 15:37:59;;;;;;;;;;;10.80;99.90;;;;;;8249573;28;19910;-78
2023/04/13 15:42:01;;;;;;;;;;;10.70;99.90;;;;;;8230190;28;19906;-80
2023/04/13 15:46:02;;;;;;;;;;;10.50;99.90;;;;;;8230938;28;19996;-78
2023/04/13 15:50:03;;;;;;;;;;;10.50;99.90;;;;;;8227945;28;19910;-79
2023/04/13 15:54:04;;;;;;;;;;;10.60;99.90;;;;;;8230092;28;19953;-79
2023/04/13 15:58:05;;;;;;;;;;;10.20;99.90;;;;;;8247852;28;19917;-78
2023/04/13 16:02:05;;;;;;;;;;;10.00;99.90;;;;;;8248308;28;20287;-79
2023/04/13 16:06:06;;;;;;;;;;;10.10;99.90;;;;;;8240727;28;19981;-79
2023/04/13 16:10:13;;;;;;;;;;;10.20;99.90;;;;;;8232024;28;19932;-81
2023/04/13 16:14:13;;;;;;;;;;;10.30;99.90;;;;;;8233165;28;19917;-79
2023/04/13 16:18:14;;;;;;;;;;;10.00;99.90;;;;;;8226549;28;20044;-80
2023/04/13 16:22:15;;;;;;;;;;;8.90;99.90;;;;;;8222319;28;20350;-79
2023/04/13 16:26:16;;;;;;;;;;;8.30;99.90;;;;;;8232788;28;19917;-80
2023/04/13 16:30:18;;;;;;;;;;;8.00;99.90;;;;;;8243110;28;19906;-79
2023/04/13 16:34:20;;;;;;;;;;;7.50;99.90;;;;;;8239251;28;19914;-78
2023/04/13 16:38:20;;;;;;;;;;;7.40;99.90;;;;;;8233286;28;20282;-80
2023/04/13 16:42:21;;;;;;;;;;;7.20;99.90;;;;;;8245210;28;19914;-79
2023/04/13 16:46:21;;;;;;;;;;;7.10;99.90;;;;;;8250058;28;20298;-79
2023/04/13 16:50:22;;;;;;;;;;;6.80;99.90;;;;;;8227345;28;20701;-78
2023/04/13 16:54:23;;;;;;;;;;;6.50;99.90;;;;;;8234439;28;19926;-79
2023/04/13 16:58:24;;;;;;;;;;;6.50;99.90;;;;;;8232861;28;19913;-78
2023/04/13 17:02:25;;;;;;;;;;;6.50;99.90;;;;;;8245082;28;19916;-80
2023/04/13 17:06:26;;;;;;;;;;;6.50;99.90;;;;;;8227741;28;20302;-79
2023/04/13 17:10:26;;;;;;;;;;;6.60;99.90;;;;;;8254679;28;20017;-79
2023/04/13 17:14:28;;;;;;;;;;;6.30;99.90;;;;;;8255881;28;19909;-79
2023/04/13 17:18:28;;;;;;;;;;;5.90;99.90;;;;;;8222930;28;19924;-79
2023/04/13 17:22:29;;;;;;;;;;;5.80;99.90;;;;;;8231027;28;19921;-79
2023/04/13 17:26:29;;;;;;;;;;;5.60;99.90;;;;;;8245177;28;19953;-80
2023/04/13 17:30:30;;;;;;;;;;;5.60;99.90;;;;;;8243570;28;19916;-80
2023/04/13 17:34:30;;;;;;;;;;;5.60;99.90;;;;;;8225845;28;20046;-80
2023/04/13 17:38:31;;;;;;;;;;;5.60;99.90;;;;;;8221878;28;19914;-78
2023/04/13 17:42:31;;;;;;;;;;;5.80;99.90;;;;;;8230463;28;19914;-80
2023/04/13 17:46:32;;;;;;;;;;;6.10;99.90;;;;;;8247861;28;19949;-80
2023/04/13 17:50:32;;;;;;;;;;;6.00;99.90;;;;;;8231153;28;19992;-80
2023/04/13 17:54:33;;;;;;;;;;;6.00;99.90;;;;;;8225136;28;20328;-79
2023/04/13 17:58:34;;;;;;;;;;;6.10;99.90;;;;;;8227954;28;19910;-80
2023/04/13 18:02:34;;;;;;;;;;;6.10;99.90;;;;;;8231515;28;20553;-79
2023/04/13 18:06:35;;;;;;;;;;;5.90;99.90;;;;;;8229661;28;20008;-80
2023/04/13 18:10:35;;;;;;;;;;;5.80;99.90;;;;;;8233059;28;19917;-78
2023/04/13 18:14:36;;;;;;;;;;;5.60;99.90;;;;;;8225608;28;19917;-80
2023/04/13 18:18:36;;;;;;;;;;;5.40;99.90;;;;;;8245615;28;19914;-78
2023/04/13 18:22:37;;;;;;;;;;;5.20;99.90;;;;;;8221150;28;19972;-80
2023/04/13 18:26:38;;;;;;;;;;;5.50;99.90;;;;;;8244345;28;19920;-78
2023/04/13 18:30:38;;;;;;;;;;;5.50;99.90;;;;;;8225291;28;19968;-79
2023/04/13 18:34:41;;;;;;;;;;;5.30;99.90;;;;;;8245932;28;19913;-78
2023/04/13 18:38:41;;;;;;;;;;;5.20;99.90;;;;;;8242211;28;19964;-79
2023/04/13 18:42:42;;;;;;;;;;;4.90;99.90;;;;;;8229540;28;20271;-77
2023/04/13 18:46:43;;;;;;;;;;;5.00;99.90;;;;;;8248711;28;19968;-79
2023/04/13 18:50:43;;;;;;;;;;;5.20;99.90;;;;;;8225798;28;19916;-79
2023/04/13 18:54:44;;;;;;;;;;;5.20;99.90;;;;;;8222247;28;19914;-79
2023/04/13 18:58:44;;;;;;;;;;;5.10;99.90;;;;;;8233911;28;19988;-80
2023/04/13 19:02:46;;;;;;;;;;;5.60;99.90;;;;;;8229757;28;20519;-79
2023/04/13 19:06:46;;;;;;;;;;;5.80;99.90;;;;;;8226129;28;19914;-78
2023/04/13 19:10:47;;;;;;;;;;;5.80;99.90;;;;;;8223705;28;19910;-80
2023/04/13 19:14:47;;;;;;;;;;;5.80;99.90;;;;;;8222959;28;20006;-79
2023/04/13 19:18:48;;;;;;;;;;;5.50;99.90;;;;;;8247361;28;19916;-79
2023/04/13 19:22:49;;;;;;;;;;;5.20;99.90;;;;;;8233466;28;20350;-79
2023/04/13 19:26:49;;;;;;;;;;;5.10;99.90;;;;;;8226228;28;20386;-79
2023/04/13 19:30:50;;;;;;;;;;;5.60;99.90;;;;;;8236795;28;19913;-78
2023/04/13 19:34:51;;;;;;;;;;;5.90;99.90;;;;;;8234090;28;19997;-79
2023/04/13 19:38:51;;;;;;;;;;;5.80;99.90;;;;;;8247461;28;19992;-78
2023/04/13 19:42:52;;;;;;;;;;;5.40;99.90;;;;;;8227456;28;19942;-78
2023/04/13 19:46:52;;;;;;;;;;;5.70;99.90;;;;;;8224161;28;19997;-78
2023/04/13 19:50:53;;;;;;;;;;;5.30;99.90;;;;;;8234663;28;19910;-77
2023/04/13 19:54:53;;;;;;;;;;;5.40;99.90;;;;;;8216431;28;19914;-78
2023/04/13 19:58:53;;;;;;;;;;;5.70;99.90;;;;;;8230251;28;19910;-78
2023/04/13 20:03:01;;;;;;;;;;;5.60;99.90;;;;;;8247582;28;20363;-78
2023/04/13 20:07:02;;;;;;;;;;;5.40;99.90;;;;;;8225126;28;19913;-78
2023/04/13 20:11:02;;;;;;;;;;;5.80;99.90;;;;;;8226773;28;20374;-77
2023/04/13 20:15:03;;;;;;;;;;;6.00;99.90;;;;;;8234738;28;20562;-78
2023/04/13 20:19:04;;;;;;;;;;;5.90;99.90;;;;;;8250564;28;19909;-79
2023/04/13 20:23:06;;;;;;;;;;;5.70;99.90;;;;;;8229916;28;19921;-79
2023/04/13 20:27:08;;;;;;;;;;;5.40;99.90;;;;;;8234660;28;19913;-79
2023/04/13 20:31:10;;;;;;;;;;;5.40;99.90;;;;;;8233679;28;19910;-79
2023/04/13 20:35:10;;;;;;;;;;;5.50;99.90;;;;;;8225831;28;19910;-77
2023/04/13 20:39:12;;;;;;;;;;;5.20;99.90;;;;;;8229897;28;19944;-78
2023/04/13 20:43:14;;;;;;;;;;;4.90;99.90;;;;;;8225407;28;19996;-79
2023/04/13 20:47:15;;;;;;;;;;;5.10;99.90;;;;;;8220680;28;20320;-78
2023/04/13 20:51:16;;;;;;;;;;;5.40;99.90;;;;;;8223743;28;19973;-79
2023/04/13 20:55:18;;;;;;;;;;;5.00;99.90;;;;;;8252969;28;20012;-80
2023/04/13 20:59:18;;;;;;;;;;;4.80;99.90;;;;;;8230657;28;20392;-78
2023/04/13 21:03:19;;;;;;;;;;;5.00;99.90;;;;;;8249024;28;19913;-78
2023/04/13 21:07:21;;;;;;;;;;;5.30;99.90;;;;;;8229512;28;19946;-79
2023/04/13 21:11:21;;;;;;;;;;;5.40;99.90;;;;;;8234529;28;19910;-79
2023/04/13 21:15:22;;;;;;;;;;;5.20;99.90;;;;;;8243821;28;19956;-78
2023/04/13 21:19:24;;;;;;;;;;;4.90;99.90;;;;;;8216592;28;19906;-78
2023/04/13 21:23:24;;;;;;;;;;;5.40;99.90;;;;;;8194858;28;1024447;-77
2023/04/13 21:27:25;;;;;;;;;;;5.50;99.90;;;;;;8233480;28;19906;-78
2023/04/13 21:31:25;;;;;;;;;;;5.60;99.90;;;;;;8220421;28;19910;-77
2023/04/13 21:35:26;;;;;;;;;;;5.60;99.90;;;;;;8231881;28;19925;-78
2023/04/13 21:39:27;;;;;;;;;;;5.30;99.90;;;;;;8232235;28;19956;-77
2023/04/13 21:43:28;;;;;;;;;;;5.10;99.90;;;;;;8225389;28;20330;-79
2023/04/13 21:47:28;;;;;;;;;;;5.00;99.90;;;;;;8229744;28;19906;-78
2023/04/13 21:51:29;;;;;;;;;;;5.00;99.90;;;;;;8242108;28;20398;-78
2023/04/13 21:55:29;;;;;;;;;;;4.80;99.90;;;;;;8225749;28;19917;-78
2023/04/13 21:59:30;;;;;;;;;;;4.70;99.90;;;;;;8227780;28;19910;-79
2023/04/13 22:03:30;;;;;;;;;;;4.70;99.90;;;;;;8225438;28;19913;-79
2023/04/13 22:07:30;;;;;;;;;;;4.70;99.90;;;;;;8240296;28;19961;-78
2023/04/13 22:11:31;;;;;;;;;;;4.70;99.90;;;;;;8224190;28;19920;-77
2023/04/13 22:15:31;;;;;;;;;;;4.70;99.90;;;;;;8225688;28;19949;-76
2023/04/13 22:19:32;;;;;;;;;;;4.70;99.90;;;;;;8220696;28;19910;-77
2023/04/13 22:23:32;;;;;;;;;;;4.70;99.90;;;;;;8229451;28;19921;-76
2023/04/13 22:27:34;;;;;;;;;;;4.80;99.90;;;;;;8237726;28;19918;-76
2023/04/13 22:31:35;;;;;;;;;;;4.80;99.90;;;;;;8232835;23;20496;-80
2023/04/13 22:35:35;;;;;;;;;;;4.80;99.90;;;;;;8276663;28;19922;-81
2023/04/13 22:39:36;;;;;;;;;;;4.80;99.90;;;;;;8282182;28;19913;-81
2023/04/13 22:43:36;;;;;;;;;;;4.90;99.90;;;;;;8286839;28;19905;-79
2023/04/13 22:47:37;;;;;;;;;;;5.10;99.90;;;;;;8294211;28;19909;-79
2023/04/13 22:51:38;;;;;;;;;;;5.10;99.90;;;;;;8294755;28;19913;-78
2023/04/13 22:55:38;;;;;;;;;;;5.10;99.90;;;;;;8293947;28;20032;-79
2023/04/13 22:59:39;;;;;;;;;;;5.10;99.90;;;;;;8294311;28;19961;-79
2023/04/13 23:03:40;;;;;;;;;;;5.00;99.90;;;;;;8293360;28;20447;-79
2023/04/13 23:07:40;;;;;;;;;;;5.00;99.90;;;;;;8293871;28;20358;-78
2023/04/13 23:11:41;;;;;;;;;;;5.00;99.90;;;;;;8293899;28;19905;-79
2023/04/13 23:15:41;;;;;;;;;;;5.00;99.90;;;;;;8295261;28;20464;-79
2023/04/13 23:19:41;;;;;;;;;;;4.90;99.90;;;;;;8295250;28;20473;-79
2023/04/13 23:23:42;;;;;;;;;;;5.20;99.90;;;;;;8294144;28;20359;-79
2023/04/13 23:27:42;;;;;;;;;;;5.00;99.90;;;;;;8294262;28;19909;-79
2023/04/13 23:31:43;;;;;;;;;;;4.90;99.90;;;;;;8294021;28;20470;-79
2023/04/13 23:35:49;;;;;;;;;;;4.80;99.90;;;;;;8298878;28;20400;-78
2023/04/13 23:39:50;;;;;;;;;;;4.60;99.90;;;;;;8299649;28;20548;-79